createdAt,value
2023-04-04T00:00:03.607Z,1.50
2023-04-04T00:01:03.692Z,1.44
2023-04-04T00:02:03.835Z,1.44
2023-04-04T00:03:03.947Z,1.50
2023-04-04T00:04:04.135Z,1.44
2023-04-04T00:05:04.146Z,1.44
2023-04-04T00:06:04.153Z,1.44
2023-04-04T00:07:04.384Z,1.44
2023-04-04T00:08:04.366Z,1.44
2023-04-04T00:09:04.333Z,1.44
2023-04-04T00:10:04.802Z,1.44
2023-04-04T00:11:03.905Z,1.44
2023-04-04T00:12:04.080Z,1.44
2023-04-04T00:13:04.158Z,1.38
2023-04-04T00:14:04.244Z,1.44
2023-04-04T00:15:04.411Z,1.44
2023-04-04T00:16:04.485Z,1.38
2023-04-04T00:17:04.474Z,1.44
2023-04-04T00:18:03.649Z,1.44
2023-04-04T00:19:03.762Z,1.44
2023-04-04T00:20:03.839Z,1.44
2023-04-04T00:21:03.749Z,1.44
2023-04-04T00:22:03.907Z,1.44
2023-04-04T00:23:03.903Z,1.44
2023-04-04T00:24:03.987Z,1.44
2023-04-04T00:25:04.156Z,1.44
2023-04-04T00:26:04.064Z,1.44
2023-04-04T00:27:04.074Z,1.44
2023-04-04T00:28:04.324Z,1.44
2023-04-04T00:29:04.174Z,1.44
2023-04-04T00:30:04.160Z,1.44
2023-04-04T00:31:04.662Z,1.44
2023-04-04T00:32:03.582Z,1.50
2023-04-04T00:33:03.584Z,1.50
2023-04-04T00:34:03.683Z,1.50
2023-04-04T00:35:03.763Z,1.50
2023-04-04T00:36:03.773Z,1.50
2023-04-04T00:37:03.831Z,1.50
2023-04-04T00:38:03.918Z,1.50
2023-04-04T00:39:03.831Z,1.50
2023-04-04T00:40:03.929Z,1.50
2023-04-04T00:41:03.992Z,1.50
2023-04-04T00:42:04.002Z,1.50
2023-04-04T00:43:04.230Z,1.50
2023-04-04T00:44:04.321Z,1.56
2023-04-04T00:45:04.399Z,1.56
2023-04-04T00:46:03.704Z,1.56
2023-04-04T00:47:03.763Z,1.56
2023-04-04T00:48:03.993Z,1.56
2023-04-04T00:49:03.994Z,1.56
2023-04-04T00:50:04.154Z,1.56
2023-04-04T00:51:04.233Z,1.56
2023-04-04T00:52:04.388Z,1.56
2023-04-04T00:53:04.334Z,1.56
2023-04-04T00:54:04.310Z,1.56
2023-04-04T00:55:04.467Z,1.56
2023-04-04T00:56:03.594Z,1.56
2023-04-04T00:57:03.756Z,1.56
2023-04-04T00:58:03.831Z,1.56
2023-04-04T00:59:03.823Z,1.56
2023-04-04T01:00:03.833Z,1.56
2023-04-04T01:01:04.099Z,1.56
2023-04-04T01:02:04.228Z,1.56
2023-04-04T01:03:04.191Z,1.56
2023-04-04T01:04:04.515Z,1.56
2023-04-04T01:05:04.390Z,1.56
2023-04-04T01:06:04.385Z,1.56
2023-04-04T01:07:04.815Z,1.56
2023-04-04T01:08:03.509Z,1.62
2023-04-04T01:09:03.518Z,1.56
2023-04-04T01:10:03.629Z,1.56
2023-04-04T01:11:03.841Z,1.56
2023-04-04T01:12:03.838Z,1.56
2023-04-04T01:13:03.835Z,1.56
2023-04-04T01:14:03.838Z,1.56
2023-04-04T01:15:03.765Z,1.56
2023-04-04T01:16:03.904Z,1.56
2023-04-04T01:17:04.203Z,1.56
2023-04-04T01:18:04.183Z,1.56
2023-04-04T01:19:04.234Z,1.56
2023-04-04T01:20:04.329Z,1.56
2023-04-04T01:21:04.332Z,1.56
2023-04-04T01:22:04.543Z,1.56
2023-04-04T01:23:03.603Z,1.56
2023-04-04T01:24:03.579Z,1.56
2023-04-04T01:25:03.827Z,1.56
2023-04-04T01:26:04.150Z,1.62
2023-04-04T01:27:04.140Z,1.56
2023-04-04T01:28:04.480Z,1.62
2023-04-04T01:29:03.588Z,1.56
2023-04-04T01:30:03.587Z,1.62
2023-04-04T01:31:03.634Z,1.62
2023-04-04T01:32:03.788Z,1.56
2023-04-04T01:33:03.883Z,1.56
2023-04-04T01:34:04.005Z,1.56
2023-04-04T01:35:04.151Z,1.56
2023-04-04T01:36:04.273Z,1.56
2023-04-04T01:37:04.397Z,1.56
2023-04-04T01:38:04.304Z,1.56
2023-04-04T01:39:04.383Z,1.56
2023-04-04T01:40:04.555Z,1.56
2023-04-04T01:41:03.507Z,1.56
2023-04-04T01:42:03.756Z,1.56
2023-04-04T01:43:03.832Z,1.56
2023-04-04T01:44:03.832Z,1.56
2023-04-04T01:45:03.822Z,1.62
2023-04-04T01:46:04.104Z,1.62
2023-04-04T01:47:04.148Z,1.56
2023-04-04T01:48:04.190Z,1.62
2023-04-04T01:49:04.480Z,1.62
2023-04-04T01:50:04.240Z,1.56
2023-04-04T01:51:04.318Z,1.56
2023-04-04T01:52:04.560Z,1.56
2023-04-04T01:53:03.590Z,1.56
2023-04-04T01:54:03.696Z,1.56
2023-04-04T01:55:03.753Z,1.56
2023-04-04T01:56:03.694Z,1.56
2023-04-04T01:57:03.749Z,1.56
2023-04-04T01:58:03.910Z,1.56
2023-04-04T01:59:03.909Z,1.56
2023-04-04T02:00:03.911Z,1.56
2023-04-04T02:01:04.153Z,1.56
2023-04-04T02:02:04.240Z,1.56
2023-04-04T02:03:04.254Z,1.56
2023-04-04T02:04:04.571Z,1.56
2023-04-04T02:05:03.589Z,1.56
2023-04-04T02:06:03.589Z,1.56
2023-04-04T02:07:03.595Z,1.56
2023-04-04T02:08:03.681Z,1.56
2023-04-04T02:09:03.695Z,1.56
2023-04-04T02:10:03.986Z,1.56
2023-04-04T02:11:03.910Z,1.56
2023-04-04T02:12:03.987Z,1.56
2023-04-04T02:13:04.313Z,1.56
2023-04-04T02:14:04.063Z,1.56
2023-04-04T02:15:04.144Z,1.56
2023-04-04T02:16:04.357Z,1.56
2023-04-04T02:17:03.504Z,1.56
2023-04-04T02:18:03.639Z,1.50
2023-04-04T02:19:03.838Z,1.50
2023-04-04T02:20:03.818Z,1.50
2023-04-04T02:21:03.835Z,1.50
2023-04-04T02:22:03.913Z,1.50
2023-04-04T02:23:04.075Z,1.50
2023-04-04T02:24:04.077Z,1.56
2023-04-04T02:25:04.161Z,1.50
2023-04-04T02:26:04.229Z,1.50
2023-04-04T02:27:04.393Z,1.50
2023-04-04T02:28:04.546Z,1.56
2023-04-04T02:29:03.797Z,1.50
2023-04-04T02:30:03.675Z,1.50
2023-04-04T02:31:03.778Z,1.50
2023-04-04T02:32:03.843Z,1.50
2023-04-04T02:33:03.805Z,1.50
2023-04-04T02:34:04.002Z,1.50
2023-04-04T02:35:04.068Z,1.50
2023-04-04T02:36:04.134Z,1.50
2023-04-04T02:37:04.227Z,1.50
2023-04-04T02:38:04.151Z,1.50
2023-04-04T02:39:04.258Z,1.50
2023-04-04T02:40:04.638Z,1.50
2023-04-04T02:41:04.474Z,1.50
2023-04-04T02:42:03.498Z,1.50
2023-04-04T02:43:03.584Z,1.50
2023-04-04T02:44:03.667Z,1.50
2023-04-04T02:45:03.740Z,1.50
2023-04-04T02:46:10.933Z,1.50
2023-04-04T02:47:03.788Z,1.44
2023-04-04T02:48:03.801Z,1.44
2023-04-04T02:49:03.756Z,1.50
2023-04-04T02:50:03.910Z,1.50
2023-04-04T02:51:03.824Z,1.44
2023-04-04T02:52:03.988Z,1.44
2023-04-04T02:53:03.911Z,1.44
2023-04-04T02:54:03.988Z,1.44
2023-04-04T02:55:04.314Z,1.44
2023-04-04T02:56:03.983Z,1.44
2023-04-04T02:57:04.165Z,1.44
2023-04-04T02:58:04.392Z,1.44
2023-04-04T02:59:03.550Z,1.44
2023-04-04T03:00:03.540Z,1.44
2023-04-04T03:01:03.746Z,1.38
2023-04-04T03:02:03.733Z,1.38
2023-04-04T03:03:03.811Z,1.38
2023-04-04T03:04:03.756Z,1.38
2023-04-04T03:05:03.749Z,1.38
2023-04-04T03:06:03.766Z,1.38
2023-04-04T03:07:03.760Z,1.38
2023-04-04T03:08:03.764Z,1.38
2023-04-04T03:09:04.323Z,1.38
2023-04-04T03:10:04.545Z,1.38
2023-04-04T03:11:03.683Z,1.38
2023-04-04T03:12:03.640Z,1.31
2023-04-04T03:13:03.831Z,1.31
2023-04-04T03:14:03.752Z,1.31
2023-04-04T03:15:03.836Z,1.31
2023-04-04T03:16:04.270Z,1.31
2023-04-04T03:17:04.067Z,1.38
2023-04-04T03:18:04.208Z,1.31
2023-04-04T03:19:04.321Z,1.31
2023-04-04T03:20:04.327Z,1.31
2023-04-04T03:21:04.313Z,1.31
2023-04-04T03:22:04.384Z,1.38
2023-04-04T03:23:03.582Z,1.31
2023-04-04T03:24:03.696Z,1.31
2023-04-04T03:25:03.855Z,1.31
2023-04-04T03:26:03.827Z,1.31
2023-04-04T03:27:03.995Z,1.31
2023-04-04T03:28:04.065Z,1.31
2023-04-04T03:29:04.109Z,1.31
2023-04-04T03:30:04.138Z,1.31
2023-04-04T03:31:04.322Z,1.31
2023-04-04T03:32:04.522Z,1.31
2023-04-04T03:33:04.464Z,1.25
2023-04-04T03:34:04.577Z,1.25
2023-04-04T03:35:03.681Z,1.25
2023-04-04T03:36:03.632Z,1.25
2023-04-04T03:37:03.800Z,1.25
2023-04-04T03:38:03.678Z,1.25
2023-04-04T03:39:03.759Z,1.25
2023-04-04T03:40:03.823Z,1.19
2023-04-04T03:41:04.105Z,1.19
2023-04-04T03:42:03.989Z,1.19
2023-04-04T03:43:04.072Z,1.19
2023-04-04T03:44:04.100Z,1.19
2023-04-04T03:45:04.073Z,1.19
2023-04-04T03:46:04.240Z,1.19
2023-04-04T03:47:04.386Z,1.19
2023-04-04T03:48:04.429Z,1.12
2023-04-04T03:49:04.550Z,1.12
2023-04-04T03:50:03.762Z,1.12
2023-04-04T03:51:03.767Z,1.12
2023-04-04T03:52:03.914Z,1.19
2023-04-04T03:53:03.987Z,1.12
2023-04-04T03:54:04.066Z,1.12
2023-04-04T03:55:04.387Z,1.06
2023-04-04T03:56:04.390Z,1.06
2023-04-04T03:57:04.386Z,1.06
2023-04-04T03:58:04.458Z,1.06
2023-04-04T03:59:03.673Z,1.06
2023-04-04T04:00:03.704Z,1.06
2023-04-04T04:01:03.824Z,1.00
2023-04-04T04:02:03.838Z,1.00
2023-04-04T04:03:03.891Z,1.00
2023-04-04T04:04:03.873Z,1.00
2023-04-04T04:05:04.079Z,1.00
2023-04-04T04:06:04.073Z,1.00
2023-04-04T04:07:04.311Z,1.00
2023-04-04T04:08:03.515Z,0.94
2023-04-04T04:09:03.594Z,0.94
2023-04-04T04:10:03.706Z,0.94
2023-04-04T04:11:03.832Z,0.94
2023-04-04T04:12:03.743Z,0.88
2023-04-04T04:13:03.920Z,0.88
2023-04-04T04:14:04.074Z,0.88
2023-04-04T04:15:04.066Z,0.88
2023-04-04T04:16:04.175Z,0.88
2023-04-04T04:17:04.315Z,0.88
2023-04-04T04:18:04.406Z,0.88
2023-04-04T04:19:04.466Z,0.88
2023-04-04T04:20:04.310Z,0.88
2023-04-04T04:21:04.378Z,0.81
2023-04-04T04:22:03.591Z,0.81
2023-04-04T04:23:03.526Z,0.81
2023-04-04T04:24:03.599Z,0.81
2023-04-04T04:25:04.105Z,0.88
2023-04-04T04:26:04.074Z,0.88
2023-04-04T04:27:04.089Z,0.88
2023-04-04T04:28:04.239Z,0.81
2023-04-04T04:29:04.154Z,0.81
2023-04-04T04:30:04.232Z,0.81
2023-04-04T04:31:04.544Z,0.81
2023-04-04T04:32:04.396Z,0.81
2023-04-04T04:33:04.434Z,0.81
2023-04-04T04:34:04.625Z,0.81
2023-04-04T04:35:03.815Z,0.81
2023-04-04T04:36:03.681Z,0.81
2023-04-04T04:37:03.858Z,0.81
2023-04-04T04:38:04.065Z,0.81
2023-04-04T04:39:04.081Z,0.81
2023-04-04T04:40:04.471Z,0.81
2023-04-04T04:41:04.388Z,0.81
2023-04-04T04:42:04.467Z,0.81
2023-04-04T04:43:03.699Z,0.81
2023-04-04T04:44:03.670Z,0.81
2023-04-04T04:45:03.672Z,0.81
2023-04-04T04:46:03.670Z,0.81
2023-04-04T04:47:03.746Z,0.81
2023-04-04T04:48:03.820Z,0.88
2023-04-04T04:49:03.944Z,0.88
2023-04-04T04:50:03.866Z,0.81
2023-04-04T04:51:03.743Z,0.81
2023-04-04T04:52:03.837Z,0.81
2023-04-04T04:53:04.310Z,0.81
2023-04-04T04:54:03.913Z,0.81
2023-04-04T04:55:04.313Z,0.81
2023-04-04T04:56:03.998Z,0.81
2023-04-04T04:57:04.166Z,0.81
2023-04-04T04:58:04.485Z,0.81
2023-04-04T04:59:04.228Z,0.81
2023-04-04T05:00:04.411Z,0.81
2023-04-04T05:01:04.342Z,1.00
2023-04-04T05:02:03.519Z,1.56
2023-04-04T05:03:03.633Z,1.94
2023-04-04T05:04:03.668Z,2.31
2023-04-04T05:05:04.563Z,2.56
2023-04-04T05:06:03.588Z,2.69
2023-04-04T05:07:03.510Z,2.50
2023-04-04T05:08:03.669Z,2.31
2023-04-04T05:09:03.829Z,2.19
2023-04-04T05:10:03.909Z,2.12
2023-04-04T05:11:05.537Z,2.31
2023-04-04T05:12:04.063Z,2.69
2023-04-04T05:13:04.067Z,2.81
2023-04-04T05:14:04.232Z,2.62
2023-04-04T05:15:04.146Z,2.31
2023-04-04T05:16:04.393Z,2.12
2023-04-04T05:17:05.192Z,2.06
2023-04-04T05:18:04.431Z,2.19
2023-04-04T05:19:04.552Z,2.19
2023-04-04T05:20:03.721Z,2.12
2023-04-04T05:21:03.656Z,2.06
2023-04-04T05:22:03.761Z,1.94
2023-04-04T05:23:03.582Z,1.88
2023-04-04T05:24:03.592Z,1.75
2023-04-04T05:25:03.517Z,1.69
2023-04-04T05:26:03.984Z,1.62
2023-04-04T05:27:04.071Z,1.75
2023-04-04T05:28:04.226Z,1.81
2023-04-04T05:29:04.318Z,1.75
2023-04-04T05:30:04.329Z,1.69
2023-04-04T05:31:03.521Z,1.69
2023-04-04T05:32:03.725Z,1.88
2023-04-04T05:33:03.954Z,2.19
2023-04-04T05:34:03.984Z,2.44
2023-04-04T05:35:04.220Z,2.31
2023-04-04T05:36:04.204Z,2.19
2023-04-04T05:37:04.715Z,2.12
2023-04-04T05:38:03.593Z,1.94
2023-04-04T05:39:03.515Z,1.88
2023-04-04T05:40:03.611Z,1.75
2023-04-04T05:41:04.182Z,1.69
2023-04-04T05:42:04.310Z,1.62
2023-04-04T05:43:04.501Z,1.56
2023-04-04T05:44:03.691Z,1.50
2023-04-04T05:45:03.613Z,1.50
2023-04-04T05:46:03.859Z,1.38
2023-04-04T05:47:03.830Z,1.44
2023-04-04T05:48:03.795Z,1.38
2023-04-04T05:49:03.757Z,1.62
2023-04-04T05:50:03.947Z,1.81
2023-04-04T05:51:04.000Z,1.94
2023-04-04T05:52:03.682Z,1.88
2023-04-04T05:53:03.592Z,1.94
2023-04-04T05:54:03.620Z,1.81
2023-04-04T05:55:03.840Z,1.81
2023-04-04T05:56:03.751Z,1.81
2023-04-04T05:57:03.698Z,1.94
2023-04-04T05:58:03.676Z,2.06
2023-04-04T05:59:03.713Z,2.00
2023-04-04T06:00:03.661Z,2.06
2023-04-04T06:01:03.832Z,2.00
2023-04-04T06:02:03.998Z,2.06
2023-04-04T06:03:04.123Z,1.94
2023-04-04T06:04:03.986Z,1.88
2023-04-04T06:05:04.162Z,1.81
2023-04-04T06:06:04.116Z,1.69
2023-04-04T06:07:04.157Z,1.62
2023-04-04T06:08:04.235Z,1.56
2023-04-04T06:09:04.984Z,1.50
2023-04-04T06:10:04.402Z,1.50
2023-04-04T06:11:04.468Z,1.44
2023-04-04T06:12:04.886Z,1.75
2023-04-04T06:13:04.073Z,1.81
2023-04-04T06:14:04.159Z,1.81
2023-04-04T06:15:04.018Z,1.75
2023-04-04T06:16:04.154Z,1.69
2023-04-04T06:17:04.327Z,1.62
2023-04-04T06:18:04.287Z,1.69
2023-04-04T06:19:04.641Z,1.81
2023-04-04T06:20:04.393Z,1.94
2023-04-04T06:21:03.581Z,2.25
2023-04-04T06:22:03.582Z,2.25
2023-04-04T06:23:03.667Z,2.50
2023-04-04T06:24:03.779Z,2.62
2023-04-04T06:25:03.998Z,2.75
2023-04-04T06:26:03.922Z,3.06
2023-04-04T06:27:03.922Z,3.31
2023-04-04T06:28:03.835Z,3.12
2023-04-04T06:29:03.965Z,2.88
2023-04-04T06:30:03.915Z,2.88
2023-04-04T06:31:03.949Z,2.50
2023-04-04T06:32:04.063Z,2.38
2023-04-04T06:33:04.110Z,2.44
2023-04-04T06:34:04.598Z,2.88
2023-04-04T06:35:03.674Z,3.12
2023-04-04T06:36:04.606Z,3.12
2023-04-04T06:37:03.692Z,3.06
2023-04-04T06:38:03.930Z,3.00
2023-04-04T06:39:03.827Z,2.81
2023-04-04T06:40:04.251Z,2.69
2023-04-04T06:41:04.240Z,2.50
2023-04-04T06:42:04.146Z,2.38
2023-04-04T06:43:04.318Z,2.31
2023-04-04T06:44:04.394Z,2.19
2023-04-04T06:45:04.386Z,2.12
2023-04-04T06:46:04.714Z,2.12
2023-04-04T06:47:03.601Z,2.06
2023-04-04T06:48:03.794Z,2.00
2023-04-04T06:49:03.742Z,2.31
2023-04-04T06:50:03.883Z,2.31
2023-04-04T06:51:04.393Z,2.50
2023-04-04T06:52:04.475Z,2.81
2023-04-04T06:53:03.587Z,3.00
2023-04-04T06:54:03.751Z,3.00
2023-04-04T06:55:03.606Z,3.50
2023-04-04T06:56:03.752Z,3.56
2023-04-04T06:57:03.906Z,3.94
2023-04-04T06:58:03.915Z,3.94
2023-04-04T06:59:03.937Z,4.19
2023-04-04T07:00:03.909Z,4.12
2023-04-04T07:01:03.996Z,3.88
2023-04-04T07:02:04.122Z,3.62
2023-04-04T07:03:04.021Z,3.81
2023-04-04T07:04:04.269Z,4.00
2023-04-04T07:05:04.326Z,4.06
2023-04-04T07:06:04.339Z,3.88
2023-04-04T07:07:04.382Z,3.69
2023-04-04T07:08:04.409Z,3.50
2023-04-04T07:09:04.985Z,3.31
2023-04-04T07:10:04.628Z,3.12
2023-04-04T07:11:03.676Z,3.06
2023-04-04T07:12:05.045Z,3.00
2023-04-04T07:13:04.153Z,3.00
2023-04-04T07:14:04.075Z,3.00
2023-04-04T07:15:03.606Z,3.38
2023-04-04T07:16:03.739Z,3.69
2023-04-04T07:17:08.117Z,3.69
2023-04-04T07:18:03.809Z,3.56
2023-04-04T07:19:03.832Z,3.50
2023-04-04T07:20:04.916Z,3.81
2023-04-04T07:21:04.011Z,3.62
2023-04-04T07:22:04.083Z,3.50
2023-04-04T07:23:04.009Z,3.38
2023-04-04T07:24:03.992Z,3.31
2023-04-04T07:25:04.007Z,3.25
2023-04-04T07:26:04.066Z,3.25
2023-04-04T07:27:04.075Z,3.19
2023-04-04T07:28:12.200Z,3.19
2023-04-04T07:29:04.161Z,3.19
2023-04-04T07:30:04.089Z,3.19
2023-04-04T07:31:04.165Z,3.25
2023-04-04T07:32:04.107Z,3.19
2023-04-04T07:33:04.021Z,3.12
2023-04-04T07:34:04.039Z,3.12
2023-04-04T07:35:04.001Z,3.12
2023-04-04T07:36:04.110Z,3.19
2023-04-04T07:37:04.146Z,3.19
2023-04-04T07:38:04.149Z,3.25
2023-04-04T07:39:04.153Z,3.25
2023-04-04T07:40:04.313Z,3.25
2023-04-04T07:41:04.462Z,3.25
2023-04-04T07:42:04.387Z,3.25
2023-04-04T07:43:04.393Z,3.31
2023-04-04T07:44:03.642Z,3.31
2023-04-04T07:45:03.585Z,3.25
2023-04-04T07:46:03.692Z,3.38
2023-04-04T07:47:09.594Z,3.88
2023-04-04T07:48:03.870Z,4.38
2023-04-04T07:49:03.833Z,4.69
2023-04-04T07:50:03.932Z,4.69
2023-04-04T07:51:03.834Z,4.88
2023-04-04T07:52:03.984Z,5.12
2023-04-04T07:53:03.995Z,5.12
2023-04-04T07:54:04.077Z,4.88
2023-04-04T07:55:03.983Z,4.69
2023-04-04T07:56:04.010Z,4.69
2023-04-04T07:57:04.145Z,4.94
2023-04-04T07:58:04.405Z,5.12
2023-04-04T07:59:03.703Z,5.19
2023-04-04T08:00:03.747Z,5.00
2023-04-04T08:01:04.006Z,4.75
2023-04-04T08:02:04.060Z,4.62
2023-04-04T08:03:04.861Z,4.56
2023-04-04T08:04:04.178Z,4.50
2023-04-04T08:05:04.220Z,4.38
2023-04-04T08:06:04.299Z,4.31
2023-04-04T08:07:04.468Z,4.31
2023-04-04T08:08:04.142Z,4.50
2023-04-04T08:09:04.220Z,4.38
2023-04-04T08:10:04.393Z,4.31
2023-04-04T08:11:03.510Z,4.25
2023-04-04T08:12:03.666Z,4.25
2023-04-04T08:13:03.836Z,4.25
2023-04-04T08:14:03.773Z,4.50
2023-04-04T08:15:03.808Z,4.88
2023-04-04T08:16:04.165Z,5.38
2023-04-04T08:17:04.232Z,5.31
2023-04-04T08:18:04.352Z,5.19
2023-04-04T08:19:04.429Z,5.06
2023-04-04T08:20:04.381Z,4.94
2023-04-04T08:21:04.386Z,4.94
2023-04-04T08:22:04.547Z,4.88
2023-04-04T08:23:03.744Z,5.00
2023-04-04T08:24:03.670Z,5.31
2023-04-04T08:25:03.989Z,5.50
2023-04-04T08:26:03.920Z,5.69
2023-04-04T08:27:05.469Z,6.00
2023-04-04T08:28:04.020Z,6.06
2023-04-04T08:29:04.067Z,6.00
2023-04-04T08:30:04.183Z,6.00
2023-04-04T08:31:04.330Z,5.75
2023-04-04T08:32:04.305Z,5.50
2023-04-04T08:33:06.190Z,5.38
2023-04-04T08:34:04.305Z,5.25
2023-04-04T08:35:04.386Z,5.12
2023-04-04T08:36:04.418Z,5.06
2023-04-04T08:37:04.655Z,4.94
2023-04-04T08:38:04.390Z,4.88
2023-04-04T08:39:04.459Z,4.81
2023-04-04T08:40:03.599Z,4.88
2023-04-04T08:41:03.498Z,4.88
2023-04-04T08:42:03.744Z,4.94
2023-04-04T08:43:03.834Z,4.88
2023-04-04T08:44:03.784Z,4.88
2023-04-04T08:45:03.743Z,4.75
2023-04-04T08:46:03.662Z,4.81
2023-04-04T08:47:03.880Z,4.81
2023-04-04T08:48:03.974Z,4.75
2023-04-04T08:49:04.156Z,4.75
2023-04-04T08:50:04.231Z,4.75
2023-04-04T08:51:04.151Z,4.62
2023-04-04T08:52:04.387Z,4.94
2023-04-04T08:53:04.554Z,5.25
2023-04-04T08:54:04.549Z,5.56
2023-04-04T08:55:03.603Z,5.62
2023-04-04T08:56:03.611Z,5.69
2023-04-04T08:57:03.684Z,5.75
2023-04-04T08:58:03.671Z,5.94
2023-04-04T08:59:03.738Z,5.94
2023-04-04T09:00:03.714Z,5.94
2023-04-04T09:01:03.755Z,5.81
2023-04-04T09:02:03.678Z,5.69
2023-04-04T09:03:03.741Z,5.62
2023-04-04T09:04:03.759Z,5.56
2023-04-04T09:05:06.585Z,5.81
2023-04-04T09:06:03.773Z,6.06
2023-04-04T09:07:03.844Z,6.31
2023-04-04T09:08:03.921Z,6.56
2023-04-04T09:09:04.012Z,6.56
2023-04-04T09:10:04.005Z,6.56
2023-04-04T09:11:04.071Z,6.44
2023-04-04T09:12:04.169Z,6.25
2023-04-04T09:13:12.849Z,6.00
2023-04-04T09:14:04.227Z,5.94
2023-04-04T09:15:04.396Z,5.81
2023-04-04T09:16:04.418Z,5.75
2023-04-04T09:17:03.748Z,5.62
2023-04-04T09:18:03.827Z,5.56
2023-04-04T09:19:03.912Z,5.50
2023-04-04T09:20:03.853Z,5.44
2023-04-04T09:21:03.765Z,5.44
2023-04-04T09:22:03.939Z,5.31
2023-04-04T09:23:03.783Z,5.25
2023-04-04T09:24:03.754Z,5.19
2023-04-04T09:25:03.761Z,5.19
2023-04-04T09:26:04.774Z,5.25
2023-04-04T09:27:03.837Z,5.12
2023-04-04T09:28:03.914Z,5.00
2023-04-04T09:29:04.114Z,4.88
2023-04-04T09:30:05.584Z,4.81
2023-04-04T09:31:04.069Z,4.75
2023-04-04T09:32:03.948Z,4.69
2023-04-04T09:33:04.037Z,4.69
2023-04-04T09:34:03.984Z,4.62
2023-04-04T09:35:04.191Z,4.56
2023-04-04T09:36:04.414Z,4.50
2023-04-04T09:37:04.712Z,4.50
2023-04-04T09:38:03.730Z,4.44
2023-04-04T09:39:04.508Z,4.44
2023-04-04T09:40:04.734Z,4.38
2023-04-04T09:41:03.684Z,4.38
2023-04-04T09:42:03.599Z,4.38
2023-04-04T09:43:03.748Z,4.44
2023-04-04T09:44:03.768Z,4.44
2023-04-04T09:45:03.831Z,4.50
2023-04-04T09:46:03.867Z,4.56
2023-04-04T09:47:03.830Z,4.50
2023-04-04T09:48:03.944Z,4.44
2023-04-04T09:49:03.908Z,4.44
2023-04-04T09:50:03.925Z,4.44
2023-04-04T09:51:03.992Z,4.50
2023-04-04T09:52:04.153Z,4.69
2023-04-04T09:53:04.241Z,5.12
2023-04-04T09:54:04.246Z,5.38
2023-04-04T09:55:04.411Z,5.75
2023-04-04T09:56:05.354Z,5.94
2023-04-04T09:57:04.470Z,5.81
2023-04-04T09:58:04.564Z,5.62
2023-04-04T09:59:05.167Z,5.50
2023-04-04T10:00:03.692Z,5.25
2023-04-04T10:01:03.681Z,5.12
2023-04-04T10:02:03.673Z,4.94
2023-04-04T10:03:03.642Z,4.75
2023-04-04T10:04:03.612Z,4.69
2023-04-04T10:05:06.471Z,4.56
2023-04-04T10:06:06.402Z,4.50
2023-04-04T10:07:04.541Z,4.56
2023-04-04T10:08:03.623Z,4.50
2023-04-04T10:09:03.588Z,4.50
2023-04-04T10:10:03.506Z,4.44
2023-04-04T10:11:10.915Z,4.44
2023-04-04T10:12:03.621Z,4.38
2023-04-04T10:13:04.263Z,4.44
2023-04-04T10:14:04.560Z,4.50
2023-04-04T10:15:03.516Z,4.56
2023-04-04T10:16:03.753Z,4.56
2023-04-04T10:17:03.791Z,4.62
2023-04-04T10:18:03.734Z,4.50
2023-04-04T10:19:03.763Z,4.50
2023-04-04T10:20:03.530Z,4.50
2023-04-04T10:21:15.050Z,4.56
2023-04-04T10:22:04.540Z,4.56
2023-04-04T10:23:03.590Z,4.62
2023-04-04T10:24:03.759Z,4.56
2023-04-04T10:25:03.832Z,4.62
2023-04-04T10:26:04.078Z,4.56
2023-04-04T10:27:04.147Z,4.56
2023-04-04T10:28:04.161Z,4.69
2023-04-04T10:29:04.247Z,4.94
2023-04-04T10:30:04.314Z,5.31
2023-04-04T10:31:06.941Z,5.75
2023-04-04T10:32:04.495Z,6.25
2023-04-04T10:33:03.641Z,6.12
2023-04-04T10:34:03.673Z,5.94
2023-04-04T10:35:03.838Z,5.88
2023-04-04T10:36:03.962Z,5.69
2023-04-04T10:37:03.845Z,5.56
2023-04-04T10:38:03.986Z,5.50
2023-04-04T10:39:03.903Z,5.44
2023-04-04T10:40:04.082Z,5.38
2023-04-04T10:41:04.071Z,5.38
2023-04-04T10:42:04.160Z,5.38
2023-04-04T10:43:04.164Z,5.38
2023-04-04T10:44:04.156Z,5.38
2023-04-04T10:45:17.313Z,5.44
2023-04-04T10:46:03.680Z,5.50
2023-04-04T10:47:03.518Z,5.50
2023-04-04T10:48:03.649Z,5.50
2023-04-04T10:49:03.589Z,5.56
2023-04-04T10:50:03.598Z,5.62
2023-04-04T10:51:03.501Z,5.62
2023-04-04T10:52:03.755Z,5.62
2023-04-04T10:53:03.670Z,5.69
2023-04-04T10:54:03.695Z,5.69
2023-04-04T10:55:03.752Z,5.75
2023-04-04T10:56:03.833Z,5.69
2023-04-04T10:57:03.991Z,5.69
2023-04-04T10:58:03.996Z,5.69
2023-04-04T10:59:04.000Z,5.69
2023-04-04T11:00:04.011Z,5.75
2023-04-04T11:01:04.246Z,5.75
2023-04-04T11:02:04.315Z,5.62
2023-04-04T11:03:04.449Z,5.56
2023-04-04T11:04:04.463Z,5.50
2023-04-04T11:05:03.508Z,5.38
2023-04-04T11:06:03.593Z,5.31
2023-04-04T11:07:03.513Z,5.31
2023-04-04T11:08:08.470Z,5.31
2023-04-04T11:09:03.500Z,5.31
2023-04-04T11:10:04.628Z,5.31
2023-04-04T11:11:07.222Z,5.31
2023-04-04T11:12:03.846Z,5.19
2023-04-04T11:13:12.154Z,5.06
2023-04-04T11:14:03.832Z,5.00
2023-04-04T11:15:03.928Z,5.00
2023-04-04T11:16:04.353Z,4.94
2023-04-04T11:17:04.316Z,4.88
2023-04-04T11:18:10.676Z,4.88
2023-04-04T11:19:04.475Z,4.88
2023-04-04T11:20:03.514Z,4.88
2023-04-04T11:21:04.431Z,4.94
2023-04-04T11:22:04.637Z,4.94
2023-04-04T11:23:03.671Z,5.00
2023-04-04T11:24:03.752Z,5.06
2023-04-04T11:25:03.596Z,5.12
2023-04-04T11:26:03.765Z,5.19
2023-04-04T11:27:03.587Z,5.12
2023-04-04T11:28:03.761Z,5.12
2023-04-04T11:29:03.786Z,5.12
2023-04-04T11:30:04.487Z,5.19
2023-04-04T11:31:03.827Z,5.25
2023-04-04T11:32:03.841Z,5.31
2023-04-04T11:33:07.614Z,5.31
2023-04-04T11:34:03.867Z,5.38
2023-04-04T11:35:03.912Z,5.38
2023-04-04T11:36:05.061Z,5.38
2023-04-04T11:37:03.939Z,5.38
2023-04-04T11:38:03.895Z,5.38
2023-04-04T11:39:03.950Z,5.38
2023-04-04T11:40:03.988Z,5.38
2023-04-04T11:41:03.906Z,5.38
2023-04-04T11:42:04.134Z,5.38
2023-04-04T11:43:04.236Z,5.38
2023-04-04T11:44:04.307Z,5.38
2023-04-04T11:45:04.326Z,5.69
2023-04-04T11:46:04.506Z,5.62
2023-04-04T11:47:04.249Z,6.00
2023-04-04T11:48:04.448Z,6.31
2023-04-04T11:49:04.321Z,6.62
2023-04-04T11:50:03.751Z,6.81
2023-04-04T11:51:03.762Z,7.06
2023-04-04T11:52:03.825Z,7.31
2023-04-04T11:53:03.819Z,7.44
2023-04-04T11:54:04.159Z,7.56
2023-04-04T11:55:04.242Z,7.69
2023-04-04T11:56:04.302Z,7.62
2023-04-04T11:57:04.301Z,7.38
2023-04-04T11:58:04.705Z,7.19
2023-04-04T11:59:10.863Z,7.12
2023-04-04T12:00:03.668Z,7.12
2023-04-04T12:01:03.697Z,7.12
2023-04-04T12:02:03.673Z,7.19
2023-04-04T12:03:03.721Z,7.19
2023-04-04T12:04:03.777Z,7.25
2023-04-04T12:05:03.927Z,7.25
2023-04-04T12:06:03.931Z,7.19
2023-04-04T12:07:04.078Z,7.25
2023-04-04T12:08:04.171Z,7.31
2023-04-04T12:09:04.335Z,7.50
2023-04-04T12:10:04.638Z,7.44
2023-04-04T12:11:03.504Z,7.38
2023-04-04T12:12:03.522Z,7.38
2023-04-04T12:13:03.668Z,7.44
2023-04-04T12:14:03.857Z,7.81
2023-04-04T12:15:14.803Z,8.12
2023-04-04T12:16:03.961Z,8.69
2023-04-04T12:17:04.064Z,8.75
2023-04-04T12:18:04.237Z,9.06
2023-04-04T12:19:04.331Z,9.06
2023-04-04T12:20:04.140Z,9.06
2023-04-04T12:21:04.160Z,9.25
2023-04-04T12:22:05.293Z,9.50
2023-04-04T12:23:04.161Z,9.31
2023-04-04T12:24:04.148Z,9.12
2023-04-04T12:25:04.091Z,8.94
2023-04-04T12:26:04.227Z,8.75
2023-04-04T12:27:04.312Z,8.75
2023-04-04T12:28:04.393Z,8.56
2023-04-04T12:29:04.346Z,8.62
2023-04-04T12:30:04.493Z,8.56
2023-04-04T12:31:03.532Z,8.50
2023-04-04T12:32:03.595Z,8.56
2023-04-04T12:33:03.703Z,8.31
2023-04-04T12:34:03.589Z,8.06
2023-04-04T12:35:03.527Z,7.88
2023-04-04T12:36:03.611Z,7.69
2023-04-04T12:37:03.710Z,7.56
2023-04-04T12:38:03.775Z,7.44
2023-04-04T12:39:03.690Z,7.38
2023-04-04T12:40:03.846Z,7.25
2023-04-04T12:41:03.913Z,7.19
2023-04-04T12:42:03.779Z,7.50
2023-04-04T12:43:03.752Z,7.75
2023-04-04T12:44:03.931Z,8.19
2023-04-04T12:45:04.032Z,8.44
2023-04-04T12:46:03.913Z,8.62
2023-04-04T12:47:03.934Z,8.69
2023-04-04T12:48:04.096Z,8.81
2023-04-04T12:49:04.084Z,8.69
2023-04-04T12:50:04.166Z,8.44
2023-04-04T12:51:04.148Z,8.25
2023-04-04T12:52:04.402Z,8.25
2023-04-04T12:53:18.728Z,8.31
2023-04-04T12:54:04.395Z,8.31
2023-04-04T12:55:08.288Z,8.25
2023-04-04T12:56:04.518Z,8.19
2023-04-04T12:57:04.566Z,8.19
2023-04-04T12:58:04.548Z,8.31
2023-04-04T12:59:03.717Z,8.25
2023-04-04T13:00:03.530Z,8.31
2023-04-04T13:01:03.598Z,8.25
2023-04-04T13:02:03.759Z,8.06
2023-04-04T13:03:03.848Z,7.88
2023-04-04T13:04:03.833Z,7.69
2023-04-04T13:05:03.891Z,7.56
2023-04-04T13:06:03.883Z,7.44
2023-04-04T13:07:03.660Z,7.38
2023-04-04T13:08:03.834Z,7.31
2023-04-04T13:09:03.919Z,7.19
2023-04-04T13:10:03.841Z,7.19
2023-04-04T13:11:03.917Z,7.12
2023-04-04T13:12:03.763Z,7.12
2023-04-04T13:13:03.743Z,7.12
2023-04-04T13:14:03.888Z,7.06
2023-04-04T13:15:03.844Z,7.00
2023-04-04T13:16:03.824Z,6.94
2023-04-04T13:17:03.975Z,6.88
2023-04-04T13:18:03.976Z,6.81